MSC Sinfonia — H8XH — position and weather

sailwx.info

Track history (hours):
 
Tides and Currents Weather Stations Pressure Air Temp Water Temp Dewpoint Dewpoint Depression Visibility Wind Speed Wind Dir Waves Ship Positions

MSC Sinfonia

Last reported at 2017-Jan-15 12:33 UTC. Time now 2017-Jan-19 21:21 UTC.
Position S 33°52' E 018°26'.

Length 251 m; draft 6.8 m.

Type: Passenger vessel. MMSI: 356715971.

Date/timePositionNaut miles runAvg speedWind from/ knotsBaromVisibWave heightAir tempDewpointWater temp
2017-Jan-15 12:33S 33°52' E 018°26'3 2.8
2017-Jan-15 11:29S 33°55' E 018°26'0 0.0
2017-Jan-15 10:32S 33°55' E 018°26'0 0.0
2017-Jan-15 09:32S 33°55' E 018°26'0 0.0
2017-Jan-15 08:32S 33°55' E 018°26'0 0.0
2017-Jan-15 07:32S 33°55' E 018°26'0 0.0
2017-Jan-15 06:29S 33°55' E 018°26'0 0.0
2017-Jan-15 05:29S 33°55' E 018°26'0 0.0
2017-Jan-15 04:32S 33°55' E 018°26'0 0.0
2017-Jan-15 03:32S 33°55' E 018°26'0 0.0
2017-Jan-15 02:32S 33°55' E 018°26'0 0.0
2017-Jan-15 01:29S 33°55' E 018°26'0 0.0
2017-Jan-15 00:32S 33°55' E 018°26'0 0.0
2017-Jan-14 23:32S 33°55' E 018°26'0 0.0
2017-Jan-14 22:32S 33°55' E 018°26'0 0.0
2017-Jan-14 21:32S 33°55' E 018°26'0 0.0
2017-Jan-14 20:32S 33°55' E 018°26'0 0.0
2017-Jan-14 19:32S 33°55' E 018°26'0 0.0
2017-Jan-14 18:32S 33°55' E 018°26'0 0.0
2017-Jan-14 17:29S 33°55' E 018°26'3 2.7
2017-Jan-14 16:33S 33°52' E 018°24'1 0.1
2017-Jan-13 16:17S 33°52' E 018°25'3 4.1
2017-Jan-13 15:33S 33°55' E 018°26'0 0.0
2017-Jan-13 14:33S 33°55' E 018°26'0 0.0
2017-Jan-13 13:21S 33°55' E 018°26'0 0.0
2017-Jan-13 12:33S 33°55' E 018°26'0 0.0
2017-Jan-13 11:33S 33°55' E 018°26'0 0.0
2017-Jan-13 10:33S 33°55' E 018°26'0 0.0
2017-Jan-13 09:33S 33°55' E 018°26'0 0.0
2017-Jan-13 08:09S 33°55' E 018°26'0 0.0
2017-Jan-13 07:33S 33°55' E 018°26'0 0.3
2017-Jan-13 06:32S 33°55' E 018°26'3 0.5
2017-Jan-13 00:33S 33°51' E 018°25'8 8.2
2017-Jan-12 23:33S 33°49' E 018°16'  
2017-Jan-10 04:33S 33°52' E 018°26'2 2.3
2017-Jan-10 03:32S 33°55' E 018°26'0 0.0
2017-Jan-10 02:32S 33°55' E 018°26'0 0.0
2017-Jan-10 01:32S 33°55' E 018°26'0 0.0
2017-Jan-10 00:32S 33°55' E 018°26'0 0.0
2017-Jan-09 23:32S 33°55' E 018°26'0 0.0
2017-Jan-09 22:32S 33°55' E 018°26'0 0.0
2017-Jan-09 21:32S 33°55' E 018°26'0 0.0
2017-Jan-09 20:29S 33°55' E 018°26'0 0.0
2017-Jan-09 19:32S 33°55' E 018°26'0 0.0
2017-Jan-09 18:32S 33°55' E 018°26'0 0.0
2017-Jan-09 17:32S 33°55' E 018°26'0 0.0
2017-Jan-09 16:29S 33°55' E 018°26'0 0.0
2017-Jan-09 14:32S 33°55' E 018°26'0 0.0
2017-Jan-09 12:32S 33°55' E 018°26'0 0.0
2017-Jan-09 10:17S 33°55' E 018°26'0 0.0
2017-Jan-09 07:32S 33°55' E 018°26'0 0.0
2017-Jan-09 06:08S 33°55' E 018°26'0 0.0
2017-Jan-09 05:20S 33°55' E 018°26'0 0.0
2017-Jan-09 04:32S 33°55' E 018°26'0 0.0
2017-Jan-09 03:26S 33°55' E 018°26'0 0.0
2017-Jan-09 02:32S 33°55' E 018°26'0 0.0
2017-Jan-09 01:29S 33°55' E 018°26'0 0.0
2017-Jan-09 00:29S 33°55' E 018°26'0 0.0
2017-Jan-08 23:33S 33°55' E 018°26'4 3.9
2017-Jan-08 22:32S 33°52' E 018°22'  
2017-Jan-06 18:11S 30°23' E 030°57'1016.1
2017-Jan-06 17:33S 30°14' E 031°02'1414.0
2017-Jan-06 16:33S 29°60' E 031°07'8 8.1
2017-Jan-06 15:34S 29°53' E 031°03'1 0.5
2017-Jan-06 14:18S 29°52' E 031°02'0 0.0
2017-Jan-06 13:24S 29°52' E 031°02'0 0.0
2017-Jan-06 12:27S 29°52' E 031°02'0 0.0
2017-Jan-06 11:33S 29°52' E 031°02'0 0.0
2017-Jan-06 10:33S 29°52' E 031°02'0 0.0
2017-Jan-06 08:06S 29°52' E 031°02'0 0.0
2017-Jan-06 07:33S 29°52' E 031°02'0 0.0
2017-Jan-06 06:33S 29°52' E 031°02'0 0.0
2017-Jan-06 05:33S 29°52' E 031°02'0 0.0
2017-Jan-06 04:33S 29°52' E 031°02'0 0.0
2017-Jan-06 03:33S 29°52' E 031°02'4 3.6
2017-Jan-06 02:33S 29°50' E 031°05'1111.1
2017-Jan-06 01:33S 29°49' E 031°18'1211.6
2017-Jan-06 00:33S 29°46' E 031°31'1312.8
2017-Jan-05 23:33S 29°41' E 031°45'  
Track history (hours):
 
Tides and Currents Weather Stations Pressure Air Temp Water Temp Dewpoint Dewpoint Depression Visibility Wind Speed Wind Dir Waves Ship Positions

MSC Sinfonia

Last reported at 2017-Jan-15 12:33 UTC. Time now 2017-Jan-19 21:21 UTC.
Position S 33°52' E 018°26'.

Length 251 m; draft 6.8 m.

Type: Passenger vessel. MMSI: 356715971.

Date/timePositionNaut miles runAvg speedWind from/ knotsBaromVisibWave heightAir tempDewpointWater temp
2017-Jan-15 12:33S 33°52' E 018°26'3 2.8
2017-Jan-15 11:29S 33°55' E 018°26'0 0.0
2017-Jan-15 10:32S 33°55' E 018°26'0 0.0
2017-Jan-15 09:32S 33°55' E 018°26'0 0.0
2017-Jan-15 08:32S 33°55' E 018°26'0 0.0
2017-Jan-15 07:32S 33°55' E 018°26'0 0.0
2017-Jan-15 06:29S 33°55' E 018°26'0 0.0
2017-Jan-15 05:29S 33°55' E 018°26'0 0.0
2017-Jan-15 04:32S 33°55' E 018°26'0 0.0
2017-Jan-15 03:32S 33°55' E 018°26'0 0.0
2017-Jan-15 02:32S 33°55' E 018°26'0 0.0
2017-Jan-15 01:29S 33°55' E 018°26'0 0.0
2017-Jan-15 00:32S 33°55' E 018°26'0 0.0
2017-Jan-14 23:32S 33°55' E 018°26'0 0.0
2017-Jan-14 22:32S 33°55' E 018°26'0 0.0
2017-Jan-14 21:32S 33°55' E 018°26'0 0.0
2017-Jan-14 20:32S 33°55' E 018°26'0 0.0
2017-Jan-14 19:32S 33°55' E 018°26'0 0.0
2017-Jan-14 18:32S 33°55' E 018°26'0 0.0
2017-Jan-14 17:29S 33°55' E 018°26'3 2.7
2017-Jan-14 16:33S 33°52' E 018°24'1 0.1
2017-Jan-13 16:17S 33°52' E 018°25'3 4.1
2017-Jan-13 15:33S 33°55' E 018°26'0 0.0
2017-Jan-13 14:33S 33°55' E 018°26'0 0.0
2017-Jan-13 13:21S 33°55' E 018°26'0 0.0
2017-Jan-13 12:33S 33°55' E 018°26'0 0.0
2017-Jan-13 11:33S 33°55' E 018°26'0 0.0
2017-Jan-13 10:33S 33°55' E 018°26'0 0.0
2017-Jan-13 09:33S 33°55' E 018°26'0 0.0
2017-Jan-13 08:09S 33°55' E 018°26'0 0.0
2017-Jan-13 07:33S 33°55' E 018°26'0 0.3
2017-Jan-13 06:32S 33°55' E 018°26'3 0.5
2017-Jan-13 00:33S 33°51' E 018°25'8 8.2
2017-Jan-12 23:33S 33°49' E 018°16'  
2017-Jan-10 04:33S 33°52' E 018°26'2 2.3
2017-Jan-10 03:32S 33°55' E 018°26'0 0.0
2017-Jan-10 02:32S 33°55' E 018°26'0 0.0
2017-Jan-10 01:32S 33°55' E 018°26'0 0.0
2017-Jan-10 00:32S 33°55' E 018°26'0 0.0
2017-Jan-09 23:32S 33°55' E 018°26'0 0.0
2017-Jan-09 22:32S 33°55' E 018°26'0 0.0
2017-Jan-09 21:32S 33°55' E 018°26'0 0.0
2017-Jan-09 20:29S 33°55' E 018°26'0 0.0
2017-Jan-09 19:32S 33°55' E 018°26'0 0.0
2017-Jan-09 18:32S 33°55' E 018°26'0 0.0
2017-Jan-09 17:32S 33°55' E 018°26'0 0.0
2017-Jan-09 16:29S 33°55' E 018°26'0 0.0
2017-Jan-09 14:32S 33°55' E 018°26'0 0.0
2017-Jan-09 12:32S 33°55' E 018°26'0 0.0
2017-Jan-09 10:17S 33°55' E 018°26'0 0.0
2017-Jan-09 07:32S 33°55' E 018°26'0 0.0
2017-Jan-09 06:08S 33°55' E 018°26'0 0.0
2017-Jan-09 05:20S 33°55' E 018°26'0 0.0
2017-Jan-09 04:32S 33°55' E 018°26'0 0.0
2017-Jan-09 03:26S 33°55' E 018°26'0 0.0
2017-Jan-09 02:32S 33°55' E 018°26'0 0.0
2017-Jan-09 01:29S 33°55' E 018°26'0 0.0
2017-Jan-09 00:29S 33°55' E 018°26'0 0.0
2017-Jan-08 23:33S 33°55' E 018°26'4 3.9
2017-Jan-08 22:32S 33°52' E 018°22'  
2017-Jan-06 18:11S 30°23' E 030°57'1016.1
2017-Jan-06 17:33S 30°14' E 031°02'1414.0
2017-Jan-06 16:33S 29°60' E 031°07'8 8.1
2017-Jan-06 15:34S 29°53' E 031°03'1 0.5
2017-Jan-06 14:18S 29°52' E 031°02'0 0.0
2017-Jan-06 13:24S 29°52' E 031°02'0 0.0
2017-Jan-06 12:27S 29°52' E 031°02'0 0.0
2017-Jan-06 11:33S 29°52' E 031°02'0 0.0
2017-Jan-06 10:33S 29°52' E 031°02'0 0.0
2017-Jan-06 08:06S 29°52' E 031°02'0 0.0
2017-Jan-06 07:33S 29°52' E 031°02'0 0.0
2017-Jan-06 06:33S 29°52' E 031°02'0 0.0
2017-Jan-06 05:33S 29°52' E 031°02'0 0.0
2017-Jan-06 04:33S 29°52' E 031°02'0 0.0
2017-Jan-06 03:33S 29°52' E 031°02'4 3.6
2017-Jan-06 02:33S 29°50' E 031°05'1111.1
2017-Jan-06 01:33S 29°49' E 031°18'1211.6
2017-Jan-06 00:33S 29°46' E 031°31'1312.8
2017-Jan-05 23:33S 29°41' E 031°45'  

Dump ship's entire track history